Time;durP1;ratioP1;P1;durP2;ratioP2;P2;SDS_P1;SDS_P2;PMS_P1;PMS_P2;Temp;Humidity;BMP_temperature;BMP_pressure;BME280_temperature;BME280_humidity;BME280_pressure;Samples;Min_cycle;Max_cycle;Signal;HPM_P1;HPM_P2
2020/12/25 00:01:53;;;;;;;4.20;3.17;;;4.10;99.60;;;;;;5063088;28;20172;-89
2020/12/25 00:04:19;;;;;;;3.10;2.80;;;4.20;95.40;;;;;;5045465;28;20271;-89
2020/12/25 00:06:45;;;;;;;3.10;2.80;;;3.70;91.90;;;;;;5062821;28;20196;-88
2020/12/25 00:09:16;;;;;;;2.73;2.53;;;3.50;93.70;;;;;;5061347;28;20215;-88
2020/12/25 00:11:45;;;;;;;2.63;2.33;;;3.20;97.60;;;;;;5061080;28;20243;-88
2020/12/25 00:14:19;;;;;;;5.60;3.03;;;3.30;97.80;;;;;;5043438;28;20227;-89
2020/12/25 00:17:00;;;;;;;4.00;2.70;;;3.20;98.70;;;;;;5062819;28;20190;-88
2020/12/25 00:19:52;;;;;;;3.83;2.50;;;3.30;98.80;;;;;;5062974;28;20249;-90
2020/12/25 00:22:22;;;;;;;2.57;2.37;;;3.40;97.70;;;;;;5049082;28;20237;-89
2020/12/25 00:24:54;;;;;;;3.00;2.70;;;3.50;96.00;;;;;;5063115;28;20200;-89
2020/12/25 00:27:29;;;;;;;7.07;3.90;;;3.70;99.30;;;;;;5062478;28;20207;-89
2020/12/25 00:29:55;;;;;;;3.33;3.00;;;3.70;99.90;;;;;;5064080;28;20164;-89
2020/12/25 00:32:24;;;;;;;3.87;2.50;;;3.90;99.40;;;;;;5062673;28;20180;-89
2020/12/25 00:34:53;;;;;;;6.00;2.80;;;3.90;97.90;;;;;;5063361;28;20258;-89
2020/12/25 00:37:18;;;;;;;4.37;3.10;;;3.90;96.60;;;;;;5057487;28;20191;-89
2020/12/25 00:39:50;;;;;;;3.80;3.07;;;3.90;98.40;;;;;;5066410;28;20295;-89
2020/12/25 00:42:25;;;;;;;3.67;3.30;;;3.80;97.50;;;;;;5047163;28;20707;-88
2020/12/25 00:44:54;;;;;;;6.20;4.57;;;3.90;95.80;;;;;;5063036;28;20179;-88
2020/12/25 00:47:20;;;;;;;3.40;3.10;;;3.80;98.00;;;;;;5060447;28;20684;-88
2020/12/25 00:49:52;;;;;;;4.73;4.00;;;3.70;95.30;;;;;;5060879;28;20552;-88
2020/12/25 00:52:24;;;;;;;4.03;3.63;;;3.60;97.30;;;;;;5061200;28;20574;-89
2020/12/25 00:54:55;;;;;;;3.97;3.50;;;3.70;99.90;;;;;;5061516;28;20183;-87
2020/12/25 00:57:24;;;;;;;10.47;5.17;;;3.90;99.90;;;;;;5060864;28;20275;-88
2020/12/25 00:59:52;;;;;;;2.90;2.70;;;4.00;99.90;;;;;;5060764;28;20602;-88
2020/12/25 01:02:22;;;;;;;7.43;4.10;;;4.10;96.90;;;;;;5059634;28;20172;-87
2020/12/25 01:04:48;;;;;;;4.50;3.67;;;4.20;99.90;;;;;;5058543;28;20651;-89
2020/12/25 01:07:14;;;;;;;4.93;3.70;;;4.40;99.20;;;;;;5058334;28;20192;-89
2020/12/25 01:09:42;;;;;;;4.13;3.73;;;4.10;99.20;;;;;;5058959;28;20180;-88
2020/12/25 01:12:14;;;;;;;4.63;3.90;;;4.10;95.50;;;;;;5060769;28;20191;-89
2020/12/25 01:14:43;;;;;;;5.13;3.83;;;4.20;98.90;;;;;;5061476;28;20177;-89
2020/12/25 01:20:01;;;;;;;4.23;3.83;;;3.90;95.90;;;;;;5060228;28;20247;-88
2020/12/25 01:22:35;;;;;;;5.10;4.20;;;3.70;97.30;;;;;;5065666;28;20187;-88
2020/12/25 01:25:07;;;;;;;5.97;4.43;;;3.70;99.90;;;;;;5062197;28;20180;-88
2020/12/25 01:27:43;;;;;;;4.07;3.60;;;3.70;99.90;;;;;;5061880;28;20200;-88
2020/12/25 01:30:32;;;;;;;3.00;2.80;;;3.70;98.70;;;;;;5059781;28;20240;-88
2020/12/25 01:33:03;;;;;;;4.43;4.03;;;3.70;98.00;;;;;;5048870;28;20216;-88
2020/12/25 01:35:38;;;;;;;3.80;3.50;;;3.90;99.90;;;;;;5048188;28;20200;-88
2020/12/25 01:38:05;;;;;;;3.97;3.40;;;4.00;99.90;;;;;;5048214;28;20270;-89
2020/12/25 01:40:46;;;;;;;4.83;3.33;;;4.10;98.10;;;;;;5042734;28;20686;-88
2020/12/25 01:43:12;;;;;;;4.00;3.67;;;4.00;97.60;;;;;;5039776;28;20191;-89
2020/12/25 01:45:41;;;;;;;3.77;3.47;;;4.00;97.90;;;;;;5060089;28;20660;-89
2020/12/25 01:48:19;;;;;;;3.40;3.10;;;4.10;99.90;;;;;;5060203;28;20211;-88
2020/12/25 01:50:46;;;;;;;3.70;3.40;;;4.10;97.30;;;;;;5058814;28;20632;-87
2020/12/25 01:53:16;;;;;;;3.67;3.37;;;4.00;98.10;;;;;;5057881;28;20184;-89
2020/12/25 01:55:43;;;;;;;3.03;2.83;;;4.00;99.90;;;;;;5061049;28;20183;-89
2020/12/25 01:58:22;;;;;;;3.00;2.70;;;4.10;99.60;;;;;;5060113;28;20212;-89
2020/12/25 02:01:01;;;;;;;3.10;2.80;;;4.20;98.00;;;;;;5060884;28;20173;-90
2020/12/25 02:03:26;;;;;;;3.43;3.10;;;4.20;97.60;;;;;;5061417;28;20172;-90
2020/12/25 02:06:04;;;;;;;3.00;2.70;;;4.10;97.80;;;;;;5061872;28;20207;-90
2020/12/25 02:08:35;;;;;;;3.77;3.23;;;4.00;96.20;;;;;;5062011;28;20220;-91
2020/12/25 02:11:21;;;;;;;2.90;2.70;;;4.00;98.80;;;;;;5045384;28;20206;-90
2020/12/25 02:13:50;;;;;;;3.00;2.80;;;4.10;99.90;;;;;;5062059;28;20184;-90
2020/12/25 02:16:43;;;;;;;3.93;3.50;;;3.90;97.20;;;;;;5062567;28;20183;-90
2020/12/25 02:19:15;;;;;;;3.53;3.23;;;3.90;98.90;;;;;;5027124;28;20239;-90
2020/12/25 02:21:47;;;;;;;3.70;3.37;;;3.90;98.80;;;;;;5044506;28;20279;-89
2020/12/25 02:24:27;;;;;;;3.47;3.27;;;3.80;99.30;;;;;;5060688;28;20211;-90
2020/12/25 02:26:58;;;;;;;3.37;3.07;;;3.80;98.80;;;;;;5060525;28;20362;-91
2020/12/25 02:29:34;;;;;;;3.47;3.10;;;3.80;99.00;;;;;;5060577;28;20196;-90
2020/12/25 02:32:00;;;;;;;3.10;2.90;;;3.90;99.50;;;;;;5060585;28;20164;-90
2020/12/25 02:34:45;;;;;;;3.33;3.03;;;3.90;98.50;;;;;;5060367;28;20182;-90
2020/12/25 02:37:11;;;;;;;3.20;2.90;;;4.00;97.80;;;;;;5062042;28;20205;-90
2020/12/25 02:39:37;;;;;;;3.10;2.80;;;4.10;98.80;;;;;;5062046;28;20692;-90
2020/12/25 02:42:11;;;;;;;3.43;3.13;;;4.00;99.50;;;;;;5062152;28;20196;-90
2020/12/25 02:44:45;;;;;;;2.93;2.73;;;4.10;99.90;;;;;;5061690;28;20164;-90
2020/12/25 02:47:14;;;;;;;3.73;3.37;;;4.20;99.90;;;;;;5061585;28;20255;-90
2020/12/25 02:50:07;;;;;;;4.73;3.00;;;4.30;99.90;;;;;;5062066;28;20188;-90
2020/12/25 02:52:37;;;;;;;3.40;3.10;;;4.20;97.30;;;;;;5062360;28;20192;-91
2020/12/25 02:55:12;;;;;;;3.50;3.20;;;4.40;99.90;;;;;;5062813;28;20203;-90
2020/12/25 02:57:51;;;;;;;3.80;3.40;;;4.40;97.20;;;;;;5061247;28;20208;-90
2020/12/25 03:00:20;;;;;;;3.47;3.17;;;4.50;99.90;;;;;;5058129;28;20196;-90
2020/12/25 03:02:46;;;;;;;3.50;3.20;;;4.40;97.60;;;;;;5056540;28;20207;-89
2020/12/25 03:05:17;;;;;;;4.10;3.80;;;4.40;99.30;;;;;;5058172;28;20171;-90
2020/12/25 03:07:45;;;;;;;5.73;3.70;;;4.20;97.20;;;;;;5058170;28;20232;-91
2020/12/25 03:10:11;;;;;;;4.70;4.30;;;4.10;98.30;;;;;;5056690;28;20595;-89
2020/12/25 03:12:37;;;;;;;4.43;4.03;;;4.00;99.00;;;;;;5057371;28;20172;-90
2020/12/25 03:15:27;;;;;;;4.97;4.47;;;3.90;99.50;;;;;;5040879;28;20550;-89
2020/12/25 03:17:52;;;;;;;4.63;4.23;;;3.80;99.80;;;;;;5058659;28;20200;-90
2020/12/25 03:20:17;;;;;;;4.10;3.73;;;3.80;99.90;;;;;;5024190;28;20196;-90
2020/12/25 03:22:46;;;;;;;4.40;4.00;;;3.90;99.90;;;;;;5058200;28;20265;-90
2020/12/25 03:25:17;;;;;;;4.27;3.87;;;4.10;99.90;;;;;;5058624;28;20168;-90
2020/12/25 03:27:45;;;;;;;4.60;4.23;;;4.30;99.90;;;;;;5057884;28;20236;-90
2020/12/25 03:30:16;;;;;;;4.40;4.00;;;4.40;99.30;;;;;;5057683;28;20248;-90
2020/12/25 03:32:45;;;;;;;4.20;3.80;;;4.50;99.90;;;;;;5057189;28;20264;-90
2020/12/25 03:35:14;;;;;;;5.10;4.27;;;4.60;97.90;;;;;;5057855;28;20184;-90
2020/12/25 03:37:48;;;;;;;4.60;4.00;;;4.50;97.20;;;;;;5061781;28;20216;-91
2020/12/25 03:40:14;;;;;;;5.07;4.40;;;4.50;98.10;;;;;;5062875;28;20165;-91
2020/12/25 03:42:49;;;;;;;5.10;4.50;;;4.50;98.20;;;;;;5044438;28;20208;-91
2020/12/25 03:45:27;;;;;;;4.33;3.93;;;4.50;98.00;;;;;;5046733;28;20593;-90
2020/12/25 03:47:53;;;;;;;4.40;4.00;;;4.50;97.40;;;;;;5061101;28;20218;-90
2020/12/25 03:50:19;;;;;;;4.30;3.90;;;4.60;98.40;;;;;;5044166;28;20188;-90
2020/12/25 03:52:51;;;;;;;4.70;4.30;;;4.50;99.40;;;;;;5060885;28;20666;-91
2020/12/25 03:55:28;;;;;;;5.87;4.57;;;4.50;96.40;;;;;;5061712;28;20184;-90
2020/12/25 03:58:00;;;;;;;5.23;4.53;;;4.60;97.80;;;;;;5060996;28;20250;-91
2020/12/25 04:00:28;;;;;;;6.93;4.50;;;4.60;98.30;;;;;;5061582;28;20202;-90
2020/12/25 04:02:57;;;;;;;5.07;4.57;;;4.50;96.00;;;;;;5044484;28;20184;-90
2020/12/25 04:05:34;;;;;;;5.23;4.80;;;4.50;97.70;;;;;;5060394;28;20692;-90
2020/12/25 04:08:00;;;;;;;4.83;4.43;;;4.70;98.80;;;;;;5061338;28;20206;-90
2020/12/25 04:10:26;;;;;;;6.87;4.80;;;4.60;95.50;;;;;;5061756;28;20184;-91
2020/12/25 04:12:55;;;;;;;5.80;4.77;;;4.60;97.40;;;;;;5043853;28;20195;-90
2020/12/25 04:15:23;;;;;;;4.87;4.47;;;4.60;97.00;;;;;;5061366;28;20184;-91
2020/12/25 04:17:49;;;;;;;5.10;4.50;;;4.60;97.70;;;;;;5061942;28;20223;-89
2020/12/25 04:20:18;;;;;;;5.77;4.63;;;4.50;97.80;;;;;;5060658;28;20557;-90
2020/12/25 04:22:44;;;;;;;7.37;4.80;;;4.60;96.30;;;;;;5043661;28;20176;-90
2020/12/25 04:25:10;;;;;;;5.40;4.90;;;4.50;98.30;;;;;;5060506;28;20193;-90
2020/12/25 04:27:36;;;;;;;5.80;5.20;;;4.40;97.90;;;;;;5062117;28;20203;-90
2020/12/25 04:30:03;;;;;;;6.03;5.07;;;4.40;99.30;;;;;;5043704;28;20194;-90
2020/12/25 04:32:35;;;;;;;4.93;4.43;;;4.50;98.80;;;;;;5059659;28;20191;-90
2020/12/25 04:35:03;;;;;;;6.50;4.53;;;4.60;96.80;;;;;;5059514;28;20256;-90
2020/12/25 04:37:29;;;;;;;5.57;4.57;;;4.60;98.40;;;;;;5060886;28;20204;-90
2020/12/25 04:40:04;;;;;;;5.20;4.70;;;4.80;97.00;;;;;;5059365;28;20761;-90
2020/12/25 04:42:30;;;;;;;4.80;4.20;;;4.90;95.70;;;;;;5059191;28;20187;-90
2020/12/25 04:45:03;;;;;;;5.43;4.90;;;4.90;96.40;;;;;;5042833;28;20188;-90
2020/12/25 04:47:30;;;;;;;5.57;4.57;;;4.90;96.40;;;;;;5057744;28;20203;-90
2020/12/25 04:49:59;;;;;;;6.07;4.53;;;4.90;94.90;;;;;;5058313;28;20275;-90
2020/12/25 04:52:27;;;;;;;4.87;4.37;;;5.10;94.70;;;;;;5041578;28;20265;-90
2020/12/25 04:54:53;;;;;;;4.90;4.20;;;5.10;95.90;;;;;;5059512;28;20195;-90
2020/12/25 04:57:19;;;;;;;4.60;4.20;;;5.20;95.10;;;;;;5060675;28;20180;-90
2020/12/25 05:02:37;;;;;;;5.27;4.43;;;5.20;94.90;;;;;;5059707;28;20210;-90
2020/12/25 05:05:11;;;;;;;5.83;5.00;;;5.20;93.40;;;;;;5058940;28;20188;-90
2020/12/25 05:07:49;;;;;;;4.83;4.17;;;5.20;93.50;;;;;;5059602;28;20249;-90
2020/12/25 05:10:38;;;;;;;5.83;5.20;;;5.10;96.10;;;;;;5060573;28;20269;-89
2020/12/25 05:13:06;;;;;;;6.50;4.83;;;5.20;94.30;;;;;;5043322;28;20188;-90
2020/12/25 05:15:50;;;;;;;;;;;;;;;;;;;;;
2020/12/25 05:18:21;;;;;;;4.87;4.37;;;5.30;94.40;;;;;;5059265;28;20279;-90
2020/12/25 05:20:48;;;;;;;4.97;4.33;;;5.40;94.80;;;;;;5058049;28;20244;-90
2020/12/25 05:23:21;;;;;;;5.70;4.30;;;5.50;92.50;;;;;;5041405;28;20176;-90
2020/12/25 05:26:06;;;;;;;5.23;4.30;;;5.30;92.30;;;;;;5058180;28;20715;-90
2020/12/25 05:28:50;;;;;;;7.40;4.60;;;5.30;91.50;;;;;;5041869;28;20204;-90
2020/12/25 05:31:22;;;;;;;6.10;4.00;;;5.20;91.00;;;;;;5055231;28;20216;-89
2020/12/25 05:33:51;;;;;;;5.73;4.80;;;5.10;92.30;;;;;;5059666;28;20649;-90
2020/12/25 05:36:26;;;;;;;5.00;4.50;;;5.10;92.20;;;;;;5058315;28;20184;-90
2020/12/25 05:38:52;;;;;;;8.20;5.50;;;5.20;92.90;;;;;;5058335;28;20212;-90
2020/12/25 05:41:19;;;;;;;4.50;4.07;;;5.10;92.50;;;;;;5058553;28;20259;-90
2020/12/25 05:43:54;;;;;;;6.97;6.27;;;5.10;92.40;;;;;;5058186;28;20180;-90
2020/12/25 05:46:26;;;;;;;5.93;4.30;;;5.10;92.30;;;;;;5042095;28;20176;-89
2020/12/25 05:48:52;;;;;;;5.70;5.17;;;5.10;89.80;;;;;;5058372;28;20196;-89
2020/12/25 05:51:30;;;;;;;7.17;4.30;;;5.00;91.80;;;;;;5056477;28;20226;-89
2020/12/25 05:54:04;;;;;;;7.13;4.50;;;5.00;90.60;;;;;;5058560;28;20164;-89
2020/12/25 05:56:32;;;;;;;5.57;4.53;;;5.00;92.70;;;;;;5056703;28;20584;-89
2020/12/25 05:59:11;;;;;;;7.93;5.20;;;5.10;92.00;;;;;;5056391;28;20220;-89
2020/12/25 06:01:43;;;;;;;5.60;4.70;;;5.20;92.50;;;;;;5057091;28;20172;-88
2020/12/25 06:04:19;;;;;;;;;;;;;;;;;;;;;
2020/12/25 06:06:57;;;;;;;5.07;4.17;;;5.30;90.90;;;;;;5056375;28;20259;-89
2020/12/25 06:10:01;;;;;;;5.20;3.77;;;5.20;89.90;;;;;;5057130;28;20272;-89
2020/12/25 06:12:41;;;;;;;4.87;4.37;;;5.20;91.80;;;;;;5056478;28;20275;-89
2020/12/25 06:15:14;;;;;;;4.40;4.00;;;5.20;92.20;;;;;;5056948;28;20662;-89
2020/12/25 06:18:10;;;;;;;4.40;4.00;;;5.20;94.20;;;;;;5056597;28;20200;-88
2020/12/25 06:20:58;;;;;;;5.00;4.07;;;5.30;93.10;;;;;;5058107;28;20176;-89
2020/12/25 06:23:29;;;;;;;5.30;4.37;;;5.20;89.20;;;;;;5057117;28;20210;-89
2020/12/25 06:26:05;;;;;;;4.90;4.17;;;5.00;89.30;;;;;;5056731;28;20267;-89
2020/12/25 06:28:36;;;;;;;4.47;4.03;;;5.10;92.40;;;;;;5056187;28;20596;-89
2020/12/25 06:31:14;;;;;;;4.23;3.83;;;5.10;91.60;;;;;;5057576;28;20169;-89
2020/12/25 06:33:40;;;;;;;4.00;3.53;;;5.10;88.70;;;;;;5056966;28;20184;-89
2020/12/25 06:36:09;;;;;;;5.60;4.00;;;5.10;88.20;;;;;;5056326;28;20188;-89
2020/12/25 06:38:44;;;;;;;6.10;4.73;;;5.00;89.00;;;;;;5039618;28;20200;-89
2020/12/25 06:41:10;;;;;;;4.27;3.87;;;5.00;90.90;;;;;;5057649;28;20650;-88
2020/12/25 06:43:36;;;;;;;4.17;3.50;;;5.00;89.50;;;;;;5056025;28;20176;-89
2020/12/25 06:46:10;;;;;;;6.60;4.17;;;5.00;90.60;;;;;;5055441;28;20187;-89
2020/12/25 06:48:36;;;;;;;6.17;4.10;;;5.00;90.70;;;;;;5056992;28;20249;-89
2020/12/25 06:51:02;;;;;;;5.87;4.90;;;5.00;90.50;;;;;;5056123;28;20188;-89
2020/12/25 06:53:42;;;;;;;5.93;4.40;;;5.00;90.60;;;;;;5040329;28;20194;-89
2020/12/25 06:56:11;;;;;;;5.23;3.80;;;5.00;89.90;;;;;;5048171;28;20208;-89
2020/12/25 06:59:02;;;;;;;6.40;4.10;;;5.00;88.50;;;;;;5037603;28;20205;-88
2020/12/25 07:01:52;;;;;;;4.57;3.80;;;4.90;89.90;;;;;;5036722;28;20184;-90
2020/12/25 07:04:29;;;;;;;5.10;3.90;;;4.90;89.80;;;;;;5036598;28;20181;-89
2020/12/25 07:07:03;;;;;;;4.43;3.90;;;4.90;89.70;;;;;;5021094;28;20185;-89
2020/12/25 07:09:37;;;;;;;5.53;4.10;;;4.90;91.90;;;;;;5052519;28;20204;-88
2020/12/25 07:12:20;;;;;;;4.00;3.60;;;5.00;89.60;;;;;;5062682;28;20180;-90
2020/12/25 07:14:46;;;;;;;3.90;3.37;;;5.00;91.00;;;;;;5064934;28;20176;-91
2020/12/25 07:17:12;;;;;;;4.70;3.97;;;5.10;89.80;;;;;;5066946;28;20176;-90
2020/12/25 07:19:39;;;;;;;4.13;3.53;;;5.00;88.90;;;;;;5048669;28;20766;-90
2020/12/25 07:22:07;;;;;;;4.80;3.60;;;5.00;90.20;;;;;;5067081;28;20179;-91
2020/12/25 07:24:37;;;;;;;5.93;4.10;;;5.00;91.30;;;;;;5065973;28;20195;-90
2020/12/25 07:27:04;;;;;;;4.10;3.60;;;4.90;89.70;;;;;;5066705;28;20203;-91
2020/12/25 07:29:31;;;;;;;4.70;3.87;;;5.00;89.50;;;;;;5065695;28;20184;-92
2020/12/25 07:31:58;;;;;;;5.07;3.97;;;5.10;92.80;;;;;;5067128;28;20186;-91
2020/12/25 07:34:25;;;;;;;4.87;3.90;;;5.00;89.30;;;;;;5070140;28;20192;-94
2020/12/25 07:36:52;;;;;;;6.03;3.80;;;4.90;89.90;;;;;;5069933;28;20180;-92
2020/12/25 07:39:19;;;;;;;4.10;3.70;;;4.90;90.20;;;;;;5069592;28;20207;-92
2020/12/25 07:41:46;;;;;;;3.80;3.50;;;5.00;91.90;;;;;;5070253;28;20172;-93
2020/12/25 07:44:12;;;;;;;5.80;3.83;;;5.10;91.20;;;;;;5051662;28;20191;-92
2020/12/25 07:46:39;;;;;;;4.80;4.03;;;5.20;92.00;;;;;;5066321;28;20195;-91
2020/12/25 07:49:06;;;;;;;5.00;3.77;;;5.20;91.40;;;;;;5048935;28;21723;-91
2020/12/25 07:51:32;;;;;;;5.27;3.80;;;5.20;91.20;;;;;;5049570;28;20184;-94
2020/12/25 07:53:59;;;;;;;4.47;4.00;;;5.30;92.90;;;;;;5065897;28;20180;-90
2020/12/25 07:56:35;;;;;;;4.33;3.63;;;5.30;92.50;;;;;;5067434;28;20200;-91
2020/12/25 07:59:03;;;;;;;4.77;4.13;;;5.50;91.80;;;;;;5050524;28;20226;-91
2020/12/25 08:01:33;;;;;;;4.87;3.40;;;5.50;91.50;;;;;;5066611;28;20532;-92
2020/12/25 08:04:00;;;;;;;5.37;3.80;;;5.50;89.20;;;;;;5067275;28;20176;-94
2020/12/25 08:06:28;;;;;;;5.30;4.10;;;5.50;89.20;;;;;;5069148;28;20259;-91
2020/12/25 08:09:03;;;;;;;4.50;4.10;;;5.50;89.50;;;;;;5069993;28;20256;-92
2020/12/25 08:11:30;;;;;;;5.03;3.83;;;5.50;92.90;;;;;;5068445;28;20180;-91
2020/12/25 08:14:02;;;;;;;4.43;3.67;;;5.50;90.50;;;;;;5066691;28;20184;-93
2020/12/25 08:16:30;;;;;;;4.70;3.50;;;5.30;91.40;;;;;;5068086;28;20232;-92
2020/12/25 08:18:56;;;;;;;4.43;4.03;;;5.30;91.50;;;;;;5067698;28;20204;-92
2020/12/25 08:21:33;;;;;;;4.33;3.93;;;5.50;93.10;;;;;;5067261;28;20195;-93
2020/12/25 08:24:01;;;;;;;4.07;3.73;;;5.60;90.50;;;;;;5064798;28;20184;-93
2020/12/25 08:26:38;;;;;;;4.53;4.13;;;5.60;91.20;;;;;;5066136;28;20176;-92
2020/12/25 08:29:05;;;;;;;5.50;3.70;;;5.70;90.50;;;;;;5064420;28;20203;-93
2020/12/25 08:31:35;;;;;;;4.47;4.07;;;5.70;90.30;;;;;;5062720;28;20188;-92
2020/12/25 08:34:02;;;;;;;5.67;4.40;;;5.70;89.60;;;;;;5058978;28;20264;-94
2020/12/25 08:36:31;;;;;;;4.07;3.53;;;5.70;89.60;;;;;;5046744;28;20180;-93
2020/12/25 08:38:58;;;;;;;4.40;3.90;;;5.60;91.40;;;;;;5060654;28;20219;-93
2020/12/25 08:41:27;;;;;;;4.70;4.13;;;5.50;90.40;;;;;;5063667;28;20251;-91
2020/12/25 08:43:54;;;;;;;4.37;3.97;;;5.40;89.60;;;;;;5063834;28;20181;-92
2020/12/25 08:46:23;;;;;;;4.70;3.83;;;5.40;89.70;;;;;;5064439;28;20199;-92
2020/12/25 08:48:51;;;;;;;4.63;4.13;;;5.50;90.60;;;;;;5059005;28;20228;-92
2020/12/25 08:51:18;;;;;;;4.97;4.17;;;5.50;90.40;;;;;;5026792;28;20219;-91
2020/12/25 08:53:54;;;;;;;4.43;4.03;;;5.50;89.90;;;;;;5048992;28;20215;-92
2020/12/25 08:56:25;;;;;;;5.10;4.10;;;5.70;91.50;;;;;;5055073;28;20191;-90
2020/12/25 08:59:02;;;;;;;4.40;4.00;;;5.70;88.70;;;;;;5064341;28;20212;-91
2020/12/25 09:01:30;;;;;;;4.63;3.80;;;5.60;87.70;;;;;;5061876;28;20216;-93
2020/12/25 09:03:56;;;;;;;6.60;4.10;;;5.60;87.80;;;;;;5045850;28;20188;-91
2020/12/25 09:06:22;;;;;;;5.83;4.87;;;5.60;89.70;;;;;;5044071;28;20684;-91
2020/12/25 09:08:48;;;;;;;6.03;4.70;;;5.70;91.30;;;;;;5045334;28;20216;-92
2020/12/25 09:11:16;;;;;;;5.83;5.33;;;5.70;88.00;;;;;;5058627;28;20203;-93
2020/12/25 09:13:46;;;;;;;5.00;4.50;;;5.70;88.00;;;;;;5055297;28;20188;-92
2020/12/25 09:27:50;;;;;;;4.70;4.30;;;5.20;86.60;;;;;;5037084;28;20196;-90
2020/12/25 09:30:18;;;;;;;4.73;4.27;;;5.10;84.20;;;;;;5044492;28;20275;-92
2020/12/25 09:32:48;;;;;;;6.13;4.93;;;4.90;83.90;;;;;;5041060;28;20181;-90
2020/12/25 09:35:43;;;;;;;6.30;4.67;;;5.00;86.50;;;;;;5044357;28;20188;-91
2020/12/25 09:38:09;;;;;;;4.67;4.27;;;5.00;88.00;;;;;;5054106;28;20564;-91
2020/12/25 09:40:52;;;;;;;6.97;4.40;;;5.10;83.90;;;;;;5063421;28;20222;-91
2020/12/25 09:46:56;;;;;;;4.63;4.03;;;5.30;86.40;;;;;;4956629;28;20196;-91
2020/12/25 09:49:37;;;;;;;5.77;4.03;;;5.20;83.70;;;;;;5038258;28;20228;-91
2020/12/25 09:52:08;;;;;;;4.80;4.23;;;5.30;84.10;;;;;;5058688;28;20195;-91
2020/12/25 09:54:34;;;;;;;5.37;4.57;;;5.30;81.70;;;;;;5059694;28;20176;-92
2020/12/25 09:57:08;;;;;;;4.57;4.17;;;5.40;82.30;;;;;;5060658;28;20176;-92
2020/12/25 09:59:36;;;;;;;4.63;4.07;;;5.40;80.70;;;;;;5044622;28;20227;-91
2020/12/25 10:02:02;;;;;;;4.60;4.20;;;5.50;82.40;;;;;;5054644;28;20203;-91
2020/12/25 10:05:06;;;;;;;4.63;3.90;;;5.50;80.50;;;;;;5056962;28;20255;-92
2020/12/25 10:07:39;;;;;;;3.70;3.40;;;5.50;81.00;;;;;;5062267;28;20556;-91
2020/12/25 10:10:17;;;;;;;4.37;3.97;;;5.40;77.10;;;;;;5061701;28;20239;-90
2020/12/25 10:13:09;;;;;;;;;;;;;;;;;;;;;
2020/12/25 10:15:37;;;;;;;7.30;3.93;;;5.30;78.80;;;;;;5050979;28;20253;-91
2020/12/25 10:18:03;;;;;;;4.87;4.47;;;5.20;80.10;;;;;;5040732;28;20201;-91
2020/12/25 10:20:29;;;;;;;5.07;3.70;;;5.20;80.40;;;;;;5044799;28;20173;-91
2020/12/25 10:22:55;;;;;;;11.07;6.73;;;5.30;81.10;;;;;;5028514;28;20192;-90
2020/12/25 10:25:21;;;;;;;6.43;4.77;;;5.40;81.40;;;;;;5043598;28;20231;-91
2020/12/25 10:27:46;;;;;;;9.50;8.60;;;5.40;79.20;;;;;;5044018;28;20205;-91
2020/12/25 10:30:15;;;;;;;5.73;4.60;;;5.50;78.70;;;;;;5039217;28;20267;-91
2020/12/25 10:32:46;;;;;;;6.33;5.67;;;5.40;77.50;;;;;;5058499;28;20302;-91
2020/12/25 10:35:12;;;;;;;18.10;15.30;;;5.30;79.10;;;;;;5074731;28;20203;-91
2020/12/25 10:37:38;;;;;;;19.53;15.73;;;5.20;78.30;;;;;;5073892;28;20208;-92
2020/12/25 10:40:07;;;;;;;7.87;5.80;;;5.10;79.60;;;;;;5061227;28;20199;-91
2020/12/25 10:42:40;;;;;;;7.63;6.47;;;5.10;78.30;;;;;;5058536;28;20185;-91
2020/12/25 10:45:06;;;;;;;12.47;11.37;;;5.20;80.70;;;;;;5057312;28;20814;-91
2020/12/25 10:47:33;;;;;;;7.43;6.63;;;5.10;77.50;;;;;;5060510;28;20208;-92
2020/12/25 10:49:59;;;;;;;9.60;8.27;;;5.20;77.40;;;;;;5066963;28;20187;-91
2020/12/25 10:52:29;;;;;;;6.53;5.80;;;5.10;77.50;;;;;;5064087;28;20267;-91
2020/12/25 10:55:01;;;;;;;21.67;14.97;;;5.10;80.20;;;;;;5063135;28;20209;-91
2020/12/25 10:57:30;;;;;;;15.80;11.17;;;5.20;76.70;;;;;;5062388;28;20203;-91
2020/12/25 10:59:56;;;;;;;25.47;21.30;;;5.10;78.80;;;;;;5059157;28;20216;-91
2020/12/25 11:02:34;;;;;;;11.80;9.27;;;5.10;76.80;;;;;;5058130;28;20714;-90
2020/12/25 11:05:09;;;;;;;12.37;11.20;;;5.10;77.80;;;;;;5060053;28;20164;-90
2020/12/25 11:07:35;;;;;;;8.87;8.07;;;5.10;78.30;;;;;;5057845;28;20190;-90
2020/12/25 11:10:07;;;;;;;7.17;6.57;;;5.20;79.10;;;;;;5062371;28;20180;-91
2020/12/25 11:12:43;;;;;;;;;;;;;;;;;;;;;
2020/12/25 11:15:12;;;;;;;6.87;6.20;;;5.70;77.90;;;;;;5063442;28;20256;-89
2020/12/25 11:17:38;;;;;;;6.07;5.47;;;5.80;74.90;;;;;;5063396;28;20208;-90
2020/12/25 11:23:16;;;;;;;5.77;4.30;;;6.30;75.00;;;;;;5058222;28;20180;-91
2020/12/25 11:25:42;;;;;;;4.90;4.50;;;6.50;72.10;;;;;;5044201;28;20213;-91
2020/12/25 11:28:08;;;;;;;6.63;5.27;;;6.50;70.40;;;;;;5061592;28;20197;-90
2020/12/25 11:30:33;;;;;;;7.17;6.47;;;6.40;72.60;;;;;;5060958;28;20196;-90
2020/12/25 11:33:22;;;;;;;5.40;4.30;;;6.30;72.10;;;;;;5062712;28;20174;-90
2020/12/25 11:36:17;;;;;;;4.97;4.50;;;6.30;69.40;;;;;;5060523;28;20215;-91
2020/12/25 11:38:44;;;;;;;4.93;4.53;;;6.50;71.20;;;;;;5051594;28;20273;-90
2020/12/25 11:41:14;;;;;;;4.13;3.73;;;6.70;72.30;;;;;;5057338;28;20215;-89
2020/12/25 11:43:41;;;;;;;4.83;4.43;;;6.80;71.00;;;;;;5058381;28;20177;-89
2020/12/25 11:46:07;;;;;;;4.83;4.33;;;6.70;71.00;;;;;;5038424;28;20192;-88
2020/12/25 11:48:34;;;;;;;6.97;4.97;;;6.70;71.60;;;;;;5058604;28;20287;-90
2020/12/25 11:51:00;;;;;;;8.00;5.90;;;7.00;69.30;;;;;;5053523;28;20194;-89
2020/12/25 11:53:26;;;;;;;16.43;11.57;;;7.10;66.50;;;;;;5056595;28;20196;-91
2020/12/25 11:55:52;;;;;;;11.57;8.57;;;7.00;70.80;;;;;;5056085;28;20192;-91
2020/12/25 11:58:18;;;;;;;21.97;14.93;;;6.80;67.50;;;;;;5066769;28;20204;-91
2020/12/25 12:00:43;;;;;;;7.70;6.67;;;6.50;69.30;;;;;;5068168;28;20210;-94
2020/12/25 12:03:10;;;;;;;3.80;3.33;;;6.30;67.60;;;;;;5050671;28;20242;-93
2020/12/25 12:05:39;;;;;;;4.57;3.30;;;6.10;67.20;;;;;;5059342;28;20184;-94
2020/12/25 12:08:04;;;;;;;3.80;3.33;;;5.90;67.50;;;;;;5066307;28;20283;-94
2020/12/25 12:10:30;;;;;;;3.93;3.17;;;5.90;66.50;;;;;;5051258;28;20191;-94
2020/12/25 12:12:56;;;;;;;4.80;4.20;;;5.70;68.00;;;;;;5068390;28;20196;-94
2020/12/25 12:15:22;;;;;;;3.97;3.17;;;5.70;68.80;;;;;;5067544;28;20255;-94
2020/12/25 12:17:47;;;;;;;3.77;3.07;;;5.70;66.70;;;;;;5066464;28;20208;-94
2020/12/25 12:20:13;;;;;;;4.27;3.87;;;5.70;66.90;;;;;;5065378;28;20261;-92
2020/12/25 12:22:39;;;;;;;6.50;4.97;;;5.60;65.90;;;;;;5065841;28;20596;-92
2020/12/25 12:25:06;;;;;;;4.33;3.83;;;5.60;67.30;;;;;;5038068;28;20256;-93
2020/12/25 12:27:31;;;;;;;7.53;6.00;;;5.80;69.20;;;;;;5045735;28;20213;-91
2020/12/25 12:29:57;;;;;;;13.83;7.13;;;6.20;64.40;;;;;;5051551;28;20197;-90
2020/12/25 12:32:23;;;;;;;68.57;52.90;;;6.60;66.10;;;;;;5053513;28;20197;-90
2020/12/25 12:38:33;;;;;;;6.23;5.40;;;6.50;67.60;;;;;;5007207;28;20230;-91
2020/12/25 12:56:23;;;;;;;6.50;5.03;;;5.80;67.20;;;;;;5045126;28;20888;-94
2020/12/25 12:58:48;;;;;;;4.70;3.40;;;6.00;72.40;;;;;;5049689;28;20223;-94
2020/12/25 13:01:27;;;;;;;5.13;3.30;;;6.10;67.30;;;;;;5029302;28;20657;-94
2020/12/25 13:03:59;;;;;;;3.30;3.00;;;6.00;67.30;;;;;;5044954;28;20208;-94
2020/12/25 13:06:24;;;;;;;25.97;13.90;;;5.90;67.40;;;;;;5020338;28;20622;-94
2020/12/25 13:08:58;;;;;;;18.43;11.80;;;5.90;66.40;;;;;;5007987;28;20210;-95
2020/12/25 13:11:28;;;;;;;12.50;11.10;;;5.90;66.50;;;;;;5041264;28;20185;-94
2020/12/25 13:13:54;;;;;;;6.13;5.63;;;5.90;66.80;;;;;;5040731;28;20203;-93
2020/12/25 13:16:41;;;;;;;8.87;6.47;;;5.90;68.40;;;;;;5018943;28;20192;-93
2020/12/25 13:19:09;;;;;;;10.60;6.90;;;6.00;72.00;;;;;;5039345;28;20243;-93
2020/12/25 13:21:43;;;;;;;5.83;5.23;;;6.00;72.00;;;;;;5041119;28;20227;-93
2020/12/25 13:24:12;;;;;;;6.33;4.97;;;6.10;70.00;;;;;;5042676;28;20184;-93
2020/12/25 13:26:41;;;;;;;6.97;4.07;;;6.00;67.10;;;;;;5043016;28;20226;-93
2020/12/25 13:29:10;;;;;;;5.83;4.53;;;5.90;66.40;;;;;;5042606;28;20208;-93
2020/12/25 13:31:39;;;;;;;14.60;11.40;;;5.90;67.90;;;;;;5039260;28;20181;-93
2020/12/25 13:34:17;;;;;;;4.13;3.60;;;5.90;66.30;;;;;;5042857;28;20184;-92
2020/12/25 13:36:45;;;;;;;3.77;3.47;;;5.90;64.10;;;;;;5040967;28;20193;-92
2020/12/25 13:42:23;;;;;;;10.30;6.37;;;5.80;66.20;;;;;;5041193;28;20272;-93
2020/12/25 13:44:49;;;;;;;19.97;13.43;;;5.80;70.10;;;;;;5038709;28;20205;-91
2020/12/25 13:47:54;;;;;;;16.80;13.30;;;5.90;69.30;;;;;;5022786;28;20215;-92
2020/12/25 13:50:59;;;;;;;5.43;4.93;;;6.00;68.80;;;;;;5039726;28;20189;-93
2020/12/25 13:53:26;;;;;;;52.47;35.50;;;6.00;66.20;;;;;;5039819;28;20607;-92
2020/12/25 13:55:57;;;;;;;10.83;9.40;;;5.90;64.50;;;;;;5033421;28;20279;-92
2020/12/25 13:58:25;;;;;;;3.03;2.83;;;5.90;68.90;;;;;;5040344;28;20228;-92
2020/12/25 14:01:06;;;;;;;6.10;3.77;;;5.90;65.00;;;;;;5040415;28;20203;-93
2020/12/25 14:03:41;;;;;;;3.90;3.60;;;6.00;67.20;;;;;;5025343;28;20265;-93
2020/12/25 14:06:10;;;;;;;3.60;3.30;;;6.00;67.80;;;;;;5039545;28;20192;-93
2020/12/25 14:08:36;;;;;;;3.20;2.90;;;6.00;64.70;;;;;;5040982;28;20211;-92